Time;durP1;ratioP1;P1;durP2;ratioP2;P2;SDS_P1;SDS_P2;PMS_P1;PMS_P2;Temp;Humidity;BMP_temperature;BMP_pressure;BME280_temperature;BME280_humidity;BME280_pressure;Samples;Min_cycle;Max_cycle;Signal;HPM_P1;HPM_P2
2021/06/25 00:00:15;;;;;;;;;19.75;18.50;;;;;22.28;42.88;101334.66;4998271;28;55728;-76
2021/06/25 00:02:40;;;;;;;;;21.75;20.25;;;;;22.27;43.12;101338.22;5002324;28;45222;-76
2021/06/25 00:05:12;;;;;;;;;22.75;15.75;;;;;22.25;43.16;101333.88;4999980;28;61742;-76
2021/06/25 00:07:38;;;;;;;;;19.75;17.75;;;;;22.24;43.15;101333.00;5001319;28;45268;-76
2021/06/25 00:10:04;;;;;;;;;21.25;20.25;;;;;22.24;43.45;101332.09;5001101;28;45278;-76
2021/06/25 00:12:43;;;;;;;;;25.50;20.00;;;;;22.23;43.60;101330.38;4984815;28;45508;-77
2021/06/25 00:15:12;;;;;;;;;20.75;19.50;;;;;22.21;43.40;101330.41;5013289;28;46225;-76
2021/06/25 00:17:40;;;;;;;;;22.50;20.25;;;;;22.19;43.44;101324.28;5000904;28;45268;-76
2021/06/25 00:20:06;;;;;;;;;24.50;20.75;;;;;22.19;43.58;101326.94;4984207;28;45271;-76
2021/06/25 00:22:32;;;;;;;;;21.00;17.50;;;;;22.19;43.74;101320.75;4984197;28;45667;-76
2021/06/25 00:25:34;;;;;;;;;;;;;;;;;;;;;
2021/06/25 00:28:02;;;;;;;;;21.25;18.50;;;;;22.05;43.45;101304.28;5014648;28;73366;-76
2021/06/25 00:30:31;;;;;;;;;26.00;21.25;;;;;22.01;43.59;101299.09;4984687;28;45342;-76
2021/06/25 00:32:56;;;;;;;;;18.00;17.75;;;;;22.13;43.70;101326.25;5007513;28;45381;-76
2021/06/25 00:35:21;;;;;;;;;22.00;19.75;;;;;21.98;43.95;101298.31;5019934;28;52072;-76
2021/06/25 00:37:50;;;;;;;;;21.00;18.50;;;;;;;;5003873;28;46006;-76
2021/06/25 00:40:15;;;;;;;;;20.00;20.00;;;;;22.08;44.19;101312.22;5021813;28;45266;-76
2021/06/25 00:42:41;;;;;;;;;21.75;20.75;;;;;22.02;43.95;101303.47;5020251;28;45189;-77
2021/06/25 00:45:11;;;;;;;;;21.75;19.25;;;;;22.08;44.31;101306.91;5019848;28;57428;-76
2021/06/25 00:47:36;;;;;;;;;20.25;18.75;;;;;22.06;44.15;101303.38;5036719;28;45464;-77
2021/06/25 00:50:03;;;;;;;;;22.25;22.25;;;;;22.03;44.06;101296.38;5036254;28;51269;-77
2021/06/25 00:52:29;;;;;;;;;24.00;20.25;;;;;22.04;44.11;101307.88;5011845;28;45518;-77
2021/06/25 00:54:54;;;;;;;;;23.25;21.25;;;;;22.03;44.37;101301.69;4999785;28;52859;-76
2021/06/25 00:57:20;;;;;;;;;25.75;24.75;;;;;22.01;44.57;101299.09;5000795;28;57091;-76
2021/06/25 00:59:45;;;;;;;;;22.00;20.50;;;;;21.98;44.36;101296.53;4987098;28;45242;-77
2021/06/25 01:02:10;;;;;;;;;26.00;21.25;;;;;21.97;44.39;101294.75;5015891;28;64239;-77
2021/06/25 01:04:36;;;;;;;;;21.00;20.25;;;;;21.96;43.94;101289.47;5015742;28;64898;-77
2021/06/25 01:07:04;;;;;;;;;27.50;22.50;;;;;21.95;44.22;101285.09;5000057;28;45282;-76
2021/06/25 01:09:29;;;;;;;;;21.00;20.00;;;;;21.93;43.99;101285.13;4999970;28;45323;-76
2021/06/25 01:11:55;;;;;;;;;20.25;18.50;;;;;21.93;44.60;101287.81;4999909;28;45334;-76
2021/06/25 01:14:20;;;;;;;;;19.75;18.50;;;;;21.95;44.59;101291.28;4999197;28;58542;-76
2021/06/25 01:16:46;;;;;;;;;20.50;18.50;;;;;21.94;44.21;101284.22;4999677;28;45360;-76
2021/06/25 01:19:13;;;;;;;;;19.25;18.75;;;;;21.94;44.51;101280.69;4999035;28;45375;-76
2021/06/25 01:21:39;;;;;;;;;24.25;21.50;;;;;21.93;45.00;101279.81;4999640;28;45489;-76
2021/06/25 01:24:05;;;;;;;;;20.50;19.50;;;;;21.90;43.98;101269.28;4997286;28;47893;-76
2021/06/25 01:26:30;;;;;;;;;20.25;19.25;;;;;21.94;44.38;101275.38;5035900;28;45478;-76
2021/06/25 01:28:56;;;;;;;;;26.25;22.75;;;;;21.93;44.30;101273.63;5019414;28;45536;-76
2021/06/25 01:31:21;;;;;;;;;20.25;18.25;;;;;21.92;44.51;101270.13;5002942;28;45670;-76
2021/06/25 01:33:47;;;;;;;;;22.25;20.75;;;;;21.92;44.59;101270.13;5019281;28;45203;-76
2021/06/25 01:36:12;;;;;;;;;23.50;20.50;;;;;21.90;43.94;101266.63;5019499;28;45388;-76
2021/06/25 01:38:40;;;;;;;;;22.25;19.75;;;;;21.90;44.46;101266.63;5019468;28;45472;-76
2021/06/25 01:41:05;;;;;;;;;24.00;20.00;;;;;21.89;44.85;101259.59;5019398;28;45329;-76
2021/06/25 01:43:30;;;;;;;;;20.75;18.25;;;;;21.88;44.38;101264.91;5000337;28;48270;-76
2021/06/25 01:45:56;;;;;;;;;20.50;18.75;;;;;21.81;44.63;101250.97;5018855;28;56563;-76
2021/06/25 01:48:21;;;;;;;;;21.75;20.50;;;;;21.83;44.86;101259.75;5019281;28;45886;-76
2021/06/25 01:50:47;;;;;;;;;22.00;21.50;;;;;21.87;44.90;101269.38;5002474;28;45390;-77
2021/06/25 01:53:14;;;;;;;;;21.25;19.75;;;;;21.83;44.85;101259.75;5005126;28;47198;-76
2021/06/25 01:55:40;;;;;;;;;21.25;20.25;;;;;21.87;45.34;101261.38;4999617;28;45339;-76
2021/06/25 01:58:08;;;;;;;;;24.75;22.50;;;;;21.86;44.65;101261.44;4999352;28;45319;-76
2021/06/25 02:00:35;;;;;;;;;23.75;22.75;;;;;21.85;44.69;101257.03;5004158;28;45410;-76
2021/06/25 02:03:00;;;;;;;;;22.00;21.75;;;;;21.84;44.48;101257.97;4999053;28;45499;-76
2021/06/25 02:05:25;;;;;;;;;23.50;20.75;;;;;21.81;45.16;101250.97;4982542;28;45307;-76
2021/06/25 02:07:51;;;;;;;;;22.25;19.75;;;;;21.80;44.92;101246.53;5000300;28;45313;-76
2021/06/25 02:10:16;;;;;;;;;26.50;21.75;;;;;21.79;45.10;101238.63;5015618;28;47115;-76
2021/06/25 02:12:42;;;;;;;;;26.25;21.75;;;;;21.78;45.47;101235.09;4998742;28;46163;-76
2021/06/25 02:15:08;;;;;;;;;22.25;21.00;;;;;21.77;45.04;101232.47;4999032;28;45290;-76
2021/06/25 02:17:34;;;;;;;;;22.50;20.25;;;;;21.73;45.08;101226.41;4999073;28;45320;-76
2021/06/25 02:19:59;;;;;;;;;25.25;21.00;;;;;21.72;45.63;101229.97;5015008;28;57655;-76
2021/06/25 02:22:24;;;;;;;;;24.00;21.25;;;;;21.73;45.24;101231.72;4998389;28;54115;-77
2021/06/25 02:24:50;;;;;;;;;25.25;23.00;;;;;21.73;45.35;101226.41;5000099;28;52981;-76
2021/06/25 02:27:15;;;;;;;;;24.25;22.25;;;;;21.76;45.07;101218.31;4999689;28;46126;-76
2021/06/25 02:29:41;;;;;;;;;23.75;22.25;;;;;21.75;45.20;101221.91;5002397;28;57067;-76
2021/06/25 02:32:07;;;;;;;;;22.25;20.25;;;;;21.73;45.25;101221.97;5005274;28;46341;-76
2021/06/25 02:34:32;;;;;;;;;25.00;24.50;;;;;21.74;45.13;101222.81;5006398;28;45557;-76
2021/06/25 02:36:58;;;;;;;;;25.75;21.50;;;;;21.73;45.11;101221.09;5005387;28;51655;-76
2021/06/25 02:39:23;;;;;;;;;24.25;22.75;;;;;21.72;45.40;101224.66;5041855;28;45557;-76
2021/06/25 02:41:48;;;;;;;;;22.00;21.25;;;;;21.71;45.57;101222.91;5026350;28;46452;-76
2021/06/25 02:44:14;;;;;;;;;22.00;18.00;;;;;21.70;45.58;101219.38;5018252;28;63000;-76
2021/06/25 02:46:39;;;;;;;;;21.25;18.25;;;;;21.71;45.65;101214.91;5006132;28;54432;-76
2021/06/25 02:49:04;;;;;;;;;28.00;21.75;;;;;21.70;45.22;101216.72;5021537;28;45554;-76
2021/06/25 02:51:30;;;;;;;;;25.00;22.75;;;;;21.67;45.46;101200.88;4996017;28;58054;-76
2021/06/25 02:53:55;;;;;;;;;27.75;22.75;;;;;21.67;45.17;101210.63;5004715;28;57065;-77
2021/06/25 02:56:21;;;;;;;;;22.75;20.50;;;;;21.65;45.52;101204.50;5021260;28;51917;-76
2021/06/25 02:58:46;;;;;;;;;24.50;23.00;;;;;21.62;45.53;101213.41;5005158;28;45322;-77
2021/06/25 03:01:12;;;;;;;;;20.75;20.50;;;;;21.62;45.62;101210.75;5007431;28;46298;-76
2021/06/25 03:03:37;;;;;;;;;32.25;27.50;;;;;21.64;45.43;101213.38;5004852;28;45338;-77
2021/06/25 03:06:03;;;;;;;;;23.50;22.00;;;;;21.62;45.50;101209.88;4988575;28;45274;-77
2021/06/25 03:08:28;;;;;;;;;25.50;24.25;;;;;21.63;45.31;101208.97;4988474;28;45592;-76
2021/06/25 03:10:53;;;;;;;;;28.00;25.00;;;;;21.61;45.91;101202.81;4988026;28;56242;-76
2021/06/25 03:13:19;;;;;;;;;22.75;21.25;;;;;21.61;45.99;101205.47;5004889;28;45216;-76
2021/06/25 03:15:45;;;;;;;;;22.75;19.25;;;;;21.61;45.92;101201.03;5005002;28;45270;-76
2021/06/25 03:18:11;;;;;;;;;25.50;23.00;;;;;21.59;45.41;101202.00;5005073;28;45191;-76
2021/06/25 03:20:36;;;;;;;;;20.00;20.00;;;;;21.61;45.63;101209.00;5004392;28;47324;-76
2021/06/25 03:23:01;;;;;;;;;25.00;23.75;;;;;21.58;45.29;101200.28;5004381;28;53365;-76
2021/06/25 03:25:27;;;;;;;;;23.25;20.00;;;;;21.58;45.58;101205.59;5004854;28;45692;-76
2021/06/25 03:27:52;;;;;;;;;23.50;23.00;;;;;21.57;45.79;101195.88;5004568;28;45643;-76
2021/06/25 03:30:19;;;;;;;;;24.00;21.25;;;;;21.56;45.57;101200.31;5021184;28;45445;-76
2021/06/25 03:32:44;;;;;;;;;22.00;20.00;;;;;21.57;45.68;101206.50;4988287;28;46278;-76
2021/06/25 03:35:12;;;;;;;;;26.75;22.25;;;;;21.55;45.88;101200.38;5005886;28;45357;-75
2021/06/25 03:37:38;;;;;;;;;24.25;19.75;;;;;21.53;45.74;101199.53;5004586;28;45504;-76
2021/06/25 03:40:07;;;;;;;;;22.50;20.50;;;;;21.50;45.70;101202.28;5003528;28;45321;-76
2021/06/25 03:42:33;;;;;;;;;21.25;19.75;;;;;21.53;45.70;101207.50;4987969;28;45416;-76
2021/06/25 03:44:58;;;;;;;;;21.50;18.50;;;;;21.50;45.95;101205.81;4998298;28;45372;-76
2021/06/25 03:47:23;;;;;;;;;21.25;20.75;;;;;21.52;46.08;101211.06;5020451;28;64409;-76
2021/06/25 03:49:49;;;;;;;;;23.75;21.00;;;;;21.50;45.47;101210.25;5020554;28;57072;-76
2021/06/25 03:52:14;;;;;;;;;23.25;21.00;;;;;21.48;45.86;101214.75;5014726;28;45325;-76
2021/06/25 03:54:40;;;;;;;;;29.00;22.25;;;;;21.45;45.84;101207.69;5018081;28;45231;-76
2021/06/25 03:57:06;;;;;;;;;22.75;20.25;;;;;21.40;45.46;101193.69;5002340;28;45305;-76
2021/06/25 03:59:31;;;;;;;;;23.25;20.50;;;;;21.40;46.30;101191.91;5003532;28;46372;-76
2021/06/25 04:01:56;;;;;;;;;20.50;19.50;;;;;21.45;46.59;101203.25;4997639;28;45346;-76
2021/06/25 04:04:22;;;;;;;;;24.00;20.75;;;;;21.48;46.43;101202.31;5001142;28;45361;-76
2021/06/25 04:06:47;;;;;;;;;27.00;21.75;;;;;21.50;45.93;101202.28;5020610;28;45199;-76
2021/06/25 04:09:13;;;;;;;;;22.00;20.00;;;;;21.47;45.95;101197.06;5020140;28;63349;-76
2021/06/25 04:11:39;;;;;;;;;24.75;22.75;;;;;21.53;46.40;101202.19;5004025;28;45836;-76
2021/06/25 04:14:04;;;;;;;;;23.75;21.25;;;;;21.51;45.97;101196.91;5021062;28;45627;-76
2021/06/25 04:16:30;;;;;;;;;21.50;19.00;;;;;21.50;46.13;101191.66;5037167;28;45549;-75
2021/06/25 04:18:55;;;;;;;;;23.25;20.50;;;;;21.49;45.96;101195.22;5020505;28;45424;-75
2021/06/25 04:21:21;;;;;;;;;21.75;19.75;;;;;21.48;45.96;101199.66;5037113;28;45281;-76
2021/06/25 04:23:47;;;;;;;;;21.00;18.75;;;;;21.49;46.01;101197.88;5020770;28;45245;-76
2021/06/25 04:26:12;;;;;;;;;27.00;24.25;;;;;21.43;46.04;101185.63;5003585;28;45508;-76
2021/06/25 04:28:38;;;;;;;;;27.75;24.00;;;;;21.41;46.11;101183.03;5003679;28;46917;-75
2021/06/25 04:31:03;;;;;;;;;28.25;23.50;;;;;21.44;46.09;101195.34;5021529;28;45425;-75
2021/06/25 04:33:29;;;;;;;;;24.50;21.75;;;;;21.40;46.40;101189.25;5004187;28;45358;-75
2021/06/25 04:35:54;;;;;;;;;24.00;22.25;;;;;21.47;46.39;101202.38;5020138;28;45367;-76
2021/06/25 04:38:20;;;;;;;;;26.00;23.00;;;;;21.50;45.99;101202.28;5020249;28;45944;-76
2021/06/25 04:40:45;;;;;;;;;25.00;22.50;;;;;21.50;46.41;101204.94;5020167;28;45455;-75
2021/06/25 04:43:12;;;;;;;;;22.50;21.25;;;;;21.50;46.07;101202.28;5020124;28;45457;-76
2021/06/25 04:45:38;;;;;;;;;20.00;20.00;;;;;21.51;46.37;101210.19;5001751;28;45277;-75
2021/06/25 04:48:07;;;;;;;;;22.50;21.00;;;;;21.53;46.18;101204.84;4983819;28;47279;-76
2021/06/25 04:50:32;;;;;;;;;23.25;21.50;;;;;21.53;46.23;101194.22;4984106;28;45421;-75
2021/06/25 04:52:58;;;;;;;;;23.50;22.00;;;;;21.55;46.53;101195.06;5002432;28;45439;-76
2021/06/25 04:55:23;;;;;;;;;25.75;22.50;;;;;21.55;46.68;101195.06;5036767;28;45392;-76
2021/06/25 04:57:52;;;;;;;;;21.50;21.00;;;;;21.57;45.65;101193.22;5019711;28;45836;-76
2021/06/25 05:00:19;;;;;;;;;25.00;22.50;;;;;21.56;45.91;101196.81;4997468;28;45309;-76
2021/06/25 05:02:44;;;;;;;;;28.25;24.50;;;;;21.56;45.79;101195.00;5001402;28;45329;-75
2021/06/25 05:05:10;;;;;;;;;28.25;23.00;;;;;21.55;45.89;101190.63;5001604;28;45569;-76
2021/06/25 05:07:36;;;;;;;;;24.00;23.25;;;;;21.47;46.09;101181.13;4999898;28;46403;-77
2021/06/25 05:10:01;;;;;;;;;21.75;19.75;;;;;21.54;46.00;101194.16;5016179;28;51721;-76
2021/06/25 05:12:27;;;;;;;;;18.75;18.75;;;;;21.59;45.81;101196.69;5000056;28;45247;-80
2021/06/25 05:14:52;;;;;;;;;23.00;21.75;;;;;21.60;46.39;101203.75;4999894;28;45298;-77
2021/06/25 05:17:20;;;;;;;;;25.75;21.00;;;;;21.61;46.21;101201.03;4983105;28;55952;-78
2021/06/25 05:19:46;;;;;;;;;21.00;19.75;;;;;21.63;46.36;101193.03;4999440;28;45748;-71
2021/06/25 05:22:11;;;;;;;;;22.50;20.50;;;;;21.70;46.43;101205.22;4983466;28;45346;-77
2021/06/25 05:24:39;;;;;;;;;29.25;25.00;;;;;21.73;45.79;101202.50;4983313;28;45549;-78
2021/06/25 05:27:08;;;;;;;;;22.00;20.00;;;;;21.66;46.42;101192.94;4983034;28;48254;-76
2021/06/25 05:29:33;;;;;;;;;29.00;22.50;;;;;21.66;45.74;101183.19;4999629;28;45515;-76
2021/06/25 05:31:59;;;;;;;;;29.50;26.00;;;;;21.70;45.96;101192.81;4999744;28;45394;-80
2021/06/25 05:34:30;;;;;;;;;33.00;24.00;;;;;21.75;45.64;101205.97;4984425;28;45347;-77
2021/06/25 05:36:56;;;;;;;;;28.25;21.50;;;;;21.74;46.07;101206.88;5000897;28;53604;-80
2021/06/25 05:39:24;;;;;;;;;27.00;23.75;;;;;21.73;46.04;101203.34;5020663;28;45318;-84
2021/06/25 05:41:52;;;;;;;;;30.25;22.50;;;;;21.75;46.91;101203.31;5020817;28;45316;-72
2021/06/25 05:44:21;;;;;;;;;27.50;22.50;;;;;21.74;47.04;101196.25;4999628;28;45320;-78
2021/06/25 05:46:46;;;;;;;;;24.75;22.50;;;;;21.68;47.63;101180.50;5000065;28;45365;-74
2021/06/25 05:49:12;;;;;;;;;25.25;23.00;;;;;21.91;46.76;101201.06;5000695;28;45213;-70
2021/06/25 05:51:37;;;;;;;;;29.00;23.50;;;;;21.94;47.17;101201.84;5021338;28;45515;-77
2021/06/25 05:54:03;;;;;;;;;29.75;24.75;;;;;22.06;47.17;101207.69;5015906;28;45495;-73
2021/06/25 05:56:28;;;;;;;;;35.00;25.25;;;;;22.15;47.33;101215.41;5003998;28;46222;-78
2021/06/25 05:58:54;;;;;;;;;25.75;21.50;;;;;22.17;45.71;101206.47;5002054;28;45423;-77
2021/06/25 06:01:19;;;;;;;;;24.00;21.50;;;;;22.16;46.13;101209.19;5018264;28;45420;-88
2021/06/25 06:03:45;;;;;;;;;27.75;23.25;;;;;22.14;45.70;101203.91;5023371;28;45833;-81
2021/06/25 06:06:13;;;;;;;;;24.75;22.75;;;;;22.09;45.79;101207.63;5004328;28;47074;-84
2021/06/25 06:08:38;;;;;;;;;27.75;24.00;;;;;22.06;46.34;101205.88;5016235;28;45308;-76
2021/06/25 06:11:05;;;;;;;;;28.50;24.50;;;;;22.07;46.12;101199.72;5014572;28;45274;-75
2021/06/25 06:13:30;;;;;;;;;24.75;22.25;;;;;22.12;46.04;101200.44;5002407;28;45972;-77
2021/06/25 06:15:58;;;;;;;;;25.75;24.25;;;;;22.18;46.08;101213.53;5021793;28;45618;-75
2021/06/25 06:18:27;;;;;;;;;24.00;22.75;;;;;22.09;45.67;101194.34;5005057;28;45462;-77
2021/06/25 06:20:52;;;;;;;;;32.00;23.50;;;;;22.15;45.60;101205.66;5003153;28;45279;-80
2021/06/25 06:31:32;;;;;;;;;26.75;25.50;;;;;22.22;45.69;101198.34;5019123;28;45278;-77
2021/06/25 06:33:59;;;;;;;;;28.00;24.00;;;;;22.26;46.16;101203.53;4987322;28;45316;-85
2021/06/25 06:36:31;;;;;;;;;30.25;24.75;;;;;22.33;45.92;101198.91;4999323;28;45361;-83
2021/06/25 06:38:57;;;;;;;;;25.50;22.25;;;;;22.28;46.25;101188.38;5017838;28;45506;-86
2021/06/25 06:41:23;;;;;;;;;28.50;23.50;;;;;22.41;45.48;101198.63;5035564;28;45345;-84
2021/06/25 06:43:49;;;;;;;;;26.50;24.75;;;;;22.43;45.42;101196.81;5031266;28;45402;-82
2021/06/25 06:46:14;;;;;;;;;25.00;24.00;;;;;22.43;45.67;101188.81;4982055;28;46278;-82
2021/06/25 06:48:40;;;;;;;;;33.25;26.50;;;;;22.49;45.08;101200.09;4985482;28;45306;-82
2021/06/25 06:51:06;;;;;;;;;25.25;21.75;;;;;22.47;45.25;101196.63;5018917;28;45250;-89
2021/06/25 06:53:32;;;;;;;;;25.75;21.50;;;;;22.46;44.43;101194.91;5008086;28;45864;-85
2021/06/25 06:56:00;;;;;;;;;25.50;23.00;;;;;22.46;44.96;101199.34;4996700;28;47151;-80
2021/06/25 06:58:26;;;;;;;;;29.00;22.75;;;;;22.50;45.13;101203.63;5013678;28;45355;-84
2021/06/25 07:00:59;;;;;;;;;25.50;22.25;;;;;22.52;45.06;101194.72;5006350;28;45471;-85
2021/06/25 07:03:26;;;;;;;;;28.00;24.00;;;;;22.57;44.71;101197.19;4979844;28;45650;-85
2021/06/25 07:05:55;;;;;;;;;18.50;17.50;;;;;22.62;44.73;101197.06;5000132;28;45498;-80
2021/06/25 07:08:20;;;;;;;;;23.25;21.75;;;;;22.64;44.33;101195.22;5011870;28;45491;-88
2021/06/25 07:10:46;;;;;;;;;20.75;19.25;;;;;22.68;44.72;101202.19;5000166;28;48332;-83
2021/06/25 07:13:12;;;;;;;;;22.50;21.75;;;;;22.73;44.23;101202.88;5016252;28;68589;-85
2021/06/25 07:15:37;;;;;;;;;21.50;21.50;;;;;22.67;44.55;101195.09;5016867;28;45705;-82
2021/06/25 07:18:03;;;;;;;;;25.50;23.25;;;;;22.73;44.69;101192.25;4999506;28;45681;-85
2021/06/25 07:20:29;;;;;;;;;20.75;19.75;;;;;22.77;44.26;101191.22;5000274;28;45544;-84
2021/06/25 07:22:54;;;;;;;;;20.25;19.00;;;;;22.79;43.76;101198.22;4994818;28;45538;-84
2021/06/25 07:25:20;;;;;;;;;27.25;21.50;;;;;22.79;43.94;101194.69;5019842;28;61955;-78
2021/06/25 07:27:45;;;;;;;;;26.50;23.25;;;;;22.76;43.59;101187.72;5019061;28;55397;-83
2021/06/25 07:30:14;;;;;;;;;24.75;21.75;;;;;22.78;43.76;101188.50;4984664;28;45413;-81
2021/06/25 07:32:40;;;;;;;;;30.50;23.50;;;;;22.82;43.51;101189.25;5001288;28;45517;-80
2021/06/25 07:35:06;;;;;;;;;24.25;21.00;;;;;22.80;43.82;101176.03;5020001;28;47937;-84
2021/06/25 07:37:32;;;;;;;;;23.50;23.00;;;;;22.86;43.26;101184.75;5021095;28;45183;-85
2021/06/25 07:39:57;;;;;;;;;23.00;21.75;;;;;22.85;43.19;101186.56;5023258;28;45224;-83
2021/06/25 07:42:25;;;;;;;;;23.75;20.25;;;;;22.91;43.41;101169.47;5038110;28;45523;-84
2021/06/25 07:44:50;;;;;;;;;22.00;18.50;;;;;22.94;43.20;101172.91;5008832;28;47308;-81
2021/06/25 07:47:16;;;;;;;;;21.25;20.00;;;;;22.94;43.24;101169.41;4984588;28;45343;-80
2021/06/25 07:49:42;;;;;;;;;20.50;19.25;;;;;23.02;43.47;101180.59;5001358;28;45424;-82
2021/06/25 07:52:07;;;;;;;;;20.00;18.50;;;;;23.03;42.53;101177.91;5010791;28;49849;-81
2021/06/25 07:54:33;;;;;;;;;25.50;23.25;;;;;23.07;43.32;101170.69;4984645;28;48269;-85
2021/06/25 07:56:58;;;;;;;;;21.50;20.75;;;;;23.11;43.01;101172.31;5009310;28;53386;-84
2021/06/25 07:59:24;;;;;;;;;22.25;21.50;;;;;23.12;42.55;101169.59;4986178;28;45219;-84
2021/06/25 08:01:49;;;;;;;;;22.25;22.25;;;;;23.16;42.40;101173.00;5005233;28;45478;-91
2021/06/25 08:04:18;;;;;;;;;25.75;22.50;;;;;23.14;42.76;101161.56;5003637;28;48325;-91
2021/06/25 08:06:46;;;;;;;;;25.50;21.25;;;;;23.21;43.00;101167.53;5005373;28;45432;-86
2021/06/25 08:09:11;;;;;;;;;20.75;17.75;;;;;23.21;42.43;101159.53;5022562;28;45506;-81
2021/06/25 08:11:37;;;;;;;;;22.25;19.50;;;;;23.20;42.59;101157.81;5021474;28;45411;-88
2021/06/25 08:14:03;;;;;;;;;21.25;19.50;;;;;23.21;42.56;101152.44;5037399;28;46341;-85
2021/06/25 08:16:28;;;;;;;;;24.25;21.50;;;;;23.18;42.15;101141.88;5019872;28;45348;-82
2021/06/25 08:18:57;;;;;;;;;23.25;22.75;;;;;23.31;42.60;101168.94;5008590;28;45371;-84
2021/06/25 08:21:26;;;;;;;;;23.50;21.50;;;;;23.29;41.80;101155.69;5000514;28;45543;-85
2021/06/25 08:23:52;;;;;;;;;21.50;18.50;;;;;23.33;42.41;101159.94;4984181;28;47395;-87
2021/06/25 08:26:17;;;;;;;;;22.75;20.50;;;;;23.33;42.60;101148.44;4983469;28;45487;-87
2021/06/25 08:28:43;;;;;;;;;26.25;22.25;;;;;23.35;42.46;101151.91;4992941;28;45459;-82
2021/06/25 08:31:08;;;;;;;;;23.50;20.75;;;;;23.32;41.95;101144.03;5019779;28;45564;-84
2021/06/25 08:33:37;;;;;;;;;23.50;20.25;;;;;23.37;41.97;101155.41;5016239;28;47343;-85
2021/06/25 08:36:04;;;;;;;;;24.50;22.50;;;;;23.40;41.45;101144.63;4986612;28;45383;-84
2021/06/25 08:38:33;;;;;;;;;23.25;21.25;;;;;23.38;41.70;101133.16;5012687;28;45352;-82
2021/06/25 08:40:59;;;;;;;;;21.50;20.50;;;;;23.39;41.71;101137.56;5014377;28;45472;-95
2021/06/25 08:43:24;;;;;;;;;27.25;23.25;;;;;23.39;41.93;101134.91;4994643;28;47428;-82
2021/06/25 08:45:50;;;;;;;;;23.75;21.50;;;;;23.39;41.60;101124.25;4993291;28;45524;-79
2021/06/25 08:48:18;;;;;;;;;23.50;21.25;;;;;23.41;41.37;101130.38;4985911;28;45535;-76
2021/06/25 08:50:49;;;;;;;;;24.00;21.25;;;;;23.36;42.14;101135.84;4999942;28;45319;-90
2021/06/25 08:53:14;;;;;;;;;21.75;19.50;;;;;23.42;41.74;101126.78;5015333;28;47162;-84
2021/06/25 08:55:46;;;;;;;;;19.00;19.00;;;;;23.42;41.50;101130.31;5006790;28;45390;-91
2021/06/25 08:58:13;;;;;;;;;27.25;22.25;;;;;23.36;41.85;101122.53;5012760;28;45434;-92
2021/06/25 09:00:38;;;;;;;;;23.75;21.00;;;;;23.45;41.02;101126.66;5011729;28;45482;-93
2021/06/25 09:03:04;;;;;;;;;20.25;18.25;;;;;23.30;41.54;101097.94;5004197;28;52118;-79
2021/06/25 09:05:29;;;;;;;;;20.25;19.75;;;;;23.45;41.02;101116.00;5018736;28;45688;-82
2021/06/25 09:07:56;;;;;;;;;23.75;20.50;;;;;23.48;41.40;101125.69;5002404;28;45326;-82
2021/06/25 09:10:39;;;;;;;;;26.50;23.50;;;;;23.47;40.96;101121.28;5019050;28;45443;-81
2021/06/25 09:13:10;;;;;;;;;25.75;23.50;;;;;23.49;41.48;101111.44;5035320;28;45592;-82
2021/06/25 09:15:36;;;;;;;;;22.50;21.75;;;;;23.48;41.98;101099.91;5008303;28;45352;-82
2021/06/25 09:18:14;;;;;;;;;24.25;22.50;;;;;23.53;42.05;101107.72;5018867;28;45367;-81
2021/06/25 09:20:47;;;;;;;;;21.50;21.50;;;;;23.56;43.65;101115.59;4999944;28;45530;-77
2021/06/25 09:23:34;;;;;;;;;26.50;23.75;;;;;23.62;45.02;101108.25;4998812;28;48140;-80
2021/06/25 09:26:06;;;;;;;;;26.00;21.75;;;;;23.65;45.05;101110.81;5000187;28;45229;-80
2021/06/25 09:28:42;;;;;;;;;22.00;21.25;;;;;23.62;44.12;101099.38;5000210;28;45344;-79
2021/06/25 09:35:39;;;;;;;;;;;;;;;;;;;;;
2021/06/25 09:39:01;;;;;;;;;;;;;;;;;;;;;
2021/06/25 09:41:27;;;;;;;;;23.75;22.50;;;;;23.62;43.80;101086.94;4987231;28;70466;-85
2021/06/25 09:44:00;;;;;;;;;18.25;16.50;;;;;23.69;44.34;101092.88;4981713;28;45436;-84
2021/06/25 09:46:27;;;;;;;;;18.50;17.50;;;;;23.65;43.90;101096.63;4997904;28;46214;-88
2021/06/25 09:48:54;;;;;;;;;24.50;21.25;;;;;23.68;44.28;101092.03;4985131;28;45358;-88
2021/06/25 09:51:22;;;;;;;;;17.50;17.00;;;;;23.68;44.59;101088.50;5002928;28;45490;-88
2021/06/25 09:54:11;;;;;;;;;19.00;15.75;;;;;23.62;44.11;101075.41;4984638;28;45671;-80
2021/06/25 09:56:50;;;;;;;;;18.75;17.00;;;;;23.63;44.04;101074.47;5004198;28;47302;-82
2021/06/25 10:02:19;;;;;;;;;21.00;18.50;;;;;23.73;44.98;101099.00;5015476;28;45233;-72
2021/06/25 10:04:46;;;;;;;;;17.25;15.50;;;;;23.75;44.80;101089.13;4999019;28;45589;-76
2021/06/25 10:07:18;;;;;;;;;19.75;16.75;;;;;23.66;44.99;101075.25;5000430;28;45435;-78
2021/06/25 10:09:46;;;;;;;;;23.75;20.00;;;;;23.75;45.07;101086.47;5000139;28;45403;-78
2021/06/25 10:12:12;;;;;;;;;19.50;16.00;;;;;23.79;45.35;101093.38;5000472;28;45407;-77
2021/06/25 10:14:41;;;;;;;;;20.75;18.75;;;;;23.80;44.59;101092.47;5014830;28;45476;-77
2021/06/25 10:17:09;;;;;;;;;16.25;16.25;;;;;23.78;44.85;101081.00;4999004;28;47806;-75
2021/06/25 10:19:46;;;;;;;;;18.25;17.50;;;;;23.79;44.85;101078.25;4982200;28;45340;-73
2021/06/25 10:22:12;;;;;;;;;18.50;16.00;;;;;23.86;45.36;101068.22;4982511;28;45377;-76
2021/06/25 10:24:38;;;;;;;;;19.50;17.50;;;;;23.88;45.94;101085.03;4998674;28;45370;-75
2021/06/25 10:27:04;;;;;;;;;16.50;16.50;;;;;23.89;46.72;101079.66;5011033;28;45283;-75
2021/06/25 10:29:44;;;;;;;;;17.00;15.25;;;;;23.86;46.16;101063.75;5008098;28;45218;-81
2021/06/25 10:32:12;;;;;;;;;18.50;15.50;;;;;23.89;45.31;101069.00;4982014;28;45470;-76
2021/06/25 10:34:39;;;;;;;;;17.75;16.50;;;;;23.92;45.88;101068.84;4998029;28;45499;-82
2021/06/25 10:37:08;;;;;;;;;18.50;15.50;;;;;23.88;45.09;101056.56;4998615;28;48285;-81
2021/06/25 10:39:34;;;;;;;;;12.75;12.75;;;;;23.91;45.56;101061.78;4998886;28;45447;-79
2021/06/25 10:42:02;;;;;;;;;17.00;16.00;;;;;23.91;44.85;101064.47;5000934;28;45484;-81
2021/06/25 10:44:45;;;;;;;;;19.50;16.25;;;;;23.87;45.01;101060.16;5009770;28;45718;-78
2021/06/25 10:47:19;;;;;;;;;19.50;18.00;;;;;23.91;45.54;101066.25;4982446;28;46304;-77
2021/06/25 10:52:26;;;;;;;;;14.50;11.75;;;;;23.88;45.29;101058.38;5012048;28;45416;-80
2021/06/25 10:55:07;;;;;;;;;15.75;13.00;;;;;23.88;44.91;101063.69;5001685;28;45401;-75
2021/06/25 10:57:34;;;;;;;;;13.75;12.75;;;;;23.86;43.81;101060.22;5003322;28;45328;-75
2021/06/25 10:59:59;;;;;;;;;11.00;11.00;;;;;23.85;44.59;101048.72;5006589;28;45281;-75
2021/06/25 11:02:46;;;;;;;;;14.00;14.00;;;;;23.83;45.63;101047.91;5002016;28;45346;-75
2021/06/25 11:05:21;;;;;;;;;13.75;12.00;;;;;23.86;45.09;101050.44;5001621;28;45558;-75
2021/06/25 11:07:46;;;;;;;;;11.50;10.75;;;;;23.86;45.23;101052.25;5001910;28;46267;-76
2021/06/25 11:10:16;;;;;;;;;14.25;14.25;;;;;23.86;45.51;101057.56;5001924;28;45191;-75
2021/06/25 11:12:41;;;;;;;;;13.25;11.00;;;;;23.85;45.40;101053.16;5001621;28;45396;-75
2021/06/25 11:15:08;;;;;;;;;14.75;14.25;;;;;23.86;45.65;101057.56;5017910;28;61608;-76
2021/06/25 11:17:53;;;;;;;;;13.50;12.75;;;;;23.84;45.40;101057.63;5002714;28;47188;-76
2021/06/25 11:20:35;;;;;;;;;12.75;12.00;;;;;23.80;45.76;101056.00;5002690;28;45431;-76
2021/06/25 11:23:09;;;;;;;;;13.25;11.25;;;;;23.80;45.92;101053.34;5001561;28;45426;-76
2021/06/25 11:25:47;;;;;;;;;11.75;9.75;;;;;23.79;45.69;101059.59;5000983;28;45520;-76
2021/06/25 11:28:29;;;;;;;;;11.75;11.25;;;;;23.76;45.84;101046.41;5001803;28;47370;-76
2021/06/25 11:31:13;;;;;;;;;10.75;10.75;;;;;23.71;46.65;101044.84;5001156;28;45605;-76
2021/06/25 11:33:51;;;;;;;;;9.00;8.50;;;;;23.74;46.72;101058.94;5001400;28;45352;-74